Time;durP1;ratioP1;P1;durP2;ratioP2;P2;SDS_P1;SDS_P2;PMS_P1;PMS_P2;Temp;Humidity;BMP_temperature;BMP_pressure;BME280_temperature;BME280_humidity;BME280_pressure;Samples;Min_cycle;Max_cycle;Signal;HPM_P1;HPM_P2
2023/10/19 00:00:19;;;;;;;;;;;11.80;99.90;;;;;;2617218;47;19958;-72
2023/10/19 00:02:51;;;;;;;;;;;11.90;99.90;;;;;;2617603;39;20346;-71
2023/10/19 00:05:21;;;;;;;;;;;11.90;99.90;;;;;;2616020;47;19939;-71
2023/10/19 00:07:49;;;;;;;;;;;11.80;99.90;;;;;;2616861;47;19945;-71
2023/10/19 00:10:19;;;;;;;;;;;12.00;99.90;;;;;;2617079;46;19939;-73
2023/10/19 00:12:54;;;;;;;;;;;11.90;99.90;;;;;;2616534;47;19939;-72
2023/10/19 00:15:25;;;;;;;;;;;11.90;99.90;;;;;;2616195;47;19939;-72
2023/10/19 00:17:55;;;;;;;;;;;11.90;99.90;;;;;;2617096;47;20549;-72
2023/10/19 00:20:36;;;;;;;;;;;12.00;99.90;;;;;;2616812;47;20457;-72
2023/10/19 00:23:05;;;;;;;;;;;11.90;99.90;;;;;;2616931;54;20050;-72
2023/10/19 00:25:41;;;;;;;;;;;11.90;99.90;;;;;;2616665;54;19958;-73
2023/10/19 00:28:08;;;;;;;;;;;11.90;99.90;;;;;;2616762;47;19951;-72
2023/10/19 00:30:38;;;;;;;;;;;11.90;99.90;;;;;;2617175;54;19946;-73
2023/10/19 00:33:16;;;;;;;;;;;12.00;99.90;;;;;;2615853;39;20670;-72
2023/10/19 00:35:51;;;;;;;;;;;12.00;99.90;;;;;;2615729;47;19954;-73
2023/10/19 00:38:27;;;;;;;;;;;12.00;99.90;;;;;;2616264;54;19950;-73
2023/10/19 00:41:00;;;;;;;;;;;12.10;99.90;;;;;;2617716;54;19968;-73
2023/10/19 00:43:33;;;;;;;;;;;12.10;99.90;;;;;;2616341;47;19951;-73
2023/10/19 00:46:09;;;;;;;;;;;12.20;99.90;;;;;;2617834;47;19956;-73
2023/10/19 00:48:42;;;;;;;;;;;12.20;99.90;;;;;;2617239;47;19946;-73
2023/10/19 00:51:27;;;;;;;;;;;12.20;99.90;;;;;;2617784;46;19953;-73
2023/10/19 00:53:58;;;;;;;;;;;12.20;99.90;;;;;;2615791;47;19946;-71
2023/10/19 00:56:31;;;;;;;;;;;12.20;99.90;;;;;;2617361;47;19938;-72
2023/10/19 00:59:12;;;;;;;;;;;12.20;99.90;;;;;;2619918;52;20476;-71
2023/10/19 01:01:44;;;;;;;;;;;12.20;99.90;;;;;;2624598;46;20057;-71
2023/10/19 01:04:22;;;;;;;;;;;12.20;99.90;;;;;;2622865;47;19950;-71
2023/10/19 01:07:05;;;;;;;;;;;12.30;99.90;;;;;;2621596;47;19991;-72
2023/10/19 01:09:38;;;;;;;;;;;12.20;99.90;;;;;;2617819;46;19947;-71
2023/10/19 01:12:25;;;;;;;;;;;12.30;99.90;;;;;;2618028;53;20080;-72
2023/10/19 01:15:06;;;;;;;;;;;12.20;99.90;;;;;;2616212;47;19957;-71
2023/10/19 01:17:38;;;;;;;;;;;12.20;99.90;;;;;;2617370;54;19939;-72
2023/10/19 01:20:22;;;;;;;;;;;12.20;99.90;;;;;;2617686;47;19947;-72
2023/10/19 01:22:53;;;;;;;;;;;12.30;99.90;;;;;;2617741;46;19946;-72
2023/10/19 01:25:34;;;;;;;;;;;12.30;99.90;;;;;;2617736;54;19943;-72
2023/10/19 01:28:09;;;;;;;;;;;12.20;99.90;;;;;;2616959;54;19971;-72
2023/10/19 01:30:39;;;;;;;;;;;12.30;99.90;;;;;;2617150;47;19946;-73
2023/10/19 01:33:12;;;;;;;;;;;12.30;99.90;;;;;;2616988;47;19946;-73
2023/10/19 01:38:30;;;;;;;;;;;12.30;99.90;;;;;;2617513;47;20050;-72
2023/10/19 01:40:59;;;;;;;;;;;12.40;99.90;;;;;;2616877;54;20477;-73
2023/10/19 01:43:30;;;;;;;;;;;12.40;99.90;;;;;;2617224;47;19947;-73
2023/10/19 01:46:04;;;;;;;;;;;12.40;99.90;;;;;;2617126;46;19995;-73
2023/10/19 01:48:33;;;;;;;;;;;12.40;99.90;;;;;;2616847;54;19938;-72
2023/10/19 01:51:04;;;;;;;;;;;12.40;99.90;;;;;;2618077;47;20493;-72
2023/10/19 01:53:35;;;;;;;;;;;12.40;99.90;;;;;;2616626;54;19947;-72
2023/10/19 01:56:09;;;;;;;;;;;12.50;99.90;;;;;;2616947;54;19945;-72
2023/10/19 02:01:28;;;;;;;;;;;12.50;99.90;;;;;;2606623;54;20034;-73
2023/10/19 02:03:58;;;;;;;;;;;12.50;99.90;;;;;;2616718;54;20441;-72
2023/10/19 02:06:35;;;;;;;;;;;12.60;99.90;;;;;;2617173;47;19974;-73
2023/10/19 02:09:09;;;;;;;;;;;12.50;99.90;;;;;;2616921;54;19946;-72
2023/10/19 02:11:41;;;;;;;;;;;12.60;99.90;;;;;;2617064;54;19953;-73
2023/10/19 02:16:49;;;;;;;;;;;12.60;99.90;;;;;;2609665;39;20179;-72
2023/10/19 02:19:16;;;;;;;;;;;12.60;99.90;;;;;;2614576;47;20294;-73
2023/10/19 02:21:48;;;;;;;;;;;12.60;99.90;;;;;;2615552;54;20018;-72
2023/10/19 02:24:17;;;;;;;;;;;12.60;99.90;;;;;;2615661;54;19946;-73
2023/10/19 02:26:48;;;;;;;;;;;12.60;99.90;;;;;;2615142;54;19954;-73
2023/10/19 02:29:16;;;;;;;;;;;12.60;99.90;;;;;;2617250;54;19946;-72
2023/10/19 02:31:47;;;;;;;;;;;12.60;99.90;;;;;;2615610;54;20453;-72
2023/10/19 02:34:15;;;;;;;;;;;12.60;99.90;;;;;;2614076;54;19946;-72
2023/10/19 02:36:47;;;;;;;;;;;12.70;99.90;;;;;;2615003;54;19954;-73
2023/10/19 02:39:14;;;;;;;;;;;12.70;99.90;;;;;;2617379;54;19946;-72
2023/10/19 02:41:48;;;;;;;;;;;12.70;99.90;;;;;;2616395;39;20341;-72
2023/10/19 02:44:21;;;;;;;;;;;12.70;99.90;;;;;;2616168;54;19954;-72
2023/10/19 02:46:53;;;;;;;;;;;12.70;99.90;;;;;;2616664;39;20349;-72
2023/10/19 02:49:25;;;;;;;;;;;12.70;99.90;;;;;;2615912;54;19946;-73
2023/10/19 02:51:53;;;;;;;;;;;12.70;99.90;;;;;;2616863;39;20323;-73
2023/10/19 02:54:24;;;;;;;;;;;12.70;99.90;;;;;;2615578;54;19946;-72
2023/10/19 02:56:56;;;;;;;;;;;12.70;99.90;;;;;;2616489;54;19999;-72
2023/10/19 02:59:28;;;;;;;;;;;12.70;99.90;;;;;;2616076;47;19951;-72
2023/10/19 03:02:01;;;;;;;;;;;12.70;99.90;;;;;;2615893;54;19960;-72
2023/10/19 03:04:35;;;;;;;;;;;12.70;99.90;;;;;;2614547;47;20430;-72
2023/10/19 03:07:02;;;;;;;;;;;12.60;99.90;;;;;;2616448;54;19953;-72
2023/10/19 03:09:36;;;;;;;;;;;12.60;99.90;;;;;;2616267;49;19939;-72
2023/10/19 03:12:10;;;;;;;;;;;12.60;99.90;;;;;;2615910;53;19946;-72
2023/10/19 03:14:41;;;;;;;;;;;12.70;99.90;;;;;;2614995;54;19950;-73
2023/10/19 03:17:12;;;;;;;;;;;12.70;99.90;;;;;;2616341;39;20341;-72
2023/10/19 03:19:40;;;;;;;;;;;12.70;99.90;;;;;;2613745;54;20026;-72
2023/10/19 03:22:11;;;;;;;;;;;12.70;99.90;;;;;;2616429;54;19947;-72
2023/10/19 03:24:40;;;;;;;;;;;12.70;99.90;;;;;;2612548;54;19950;-72
2023/10/19 03:27:16;;;;;;;;;;;12.70;99.90;;;;;;2616975;47;19947;-74
2023/10/19 03:29:46;;;;;;;;;;;12.80;99.90;;;;;;2615008;47;20471;-72
2023/10/19 03:32:16;;;;;;;;;;;12.80;99.90;;;;;;2614845;54;20075;-72
2023/10/19 03:34:47;;;;;;;;;;;12.80;99.90;;;;;;2614696;54;19938;-72
2023/10/19 03:37:19;;;;;;;;;;;12.80;99.90;;;;;;2616826;54;19965;-72
2023/10/19 03:39:51;;;;;;;;;;;12.80;99.90;;;;;;2616599;54;19955;-71
2023/10/19 03:42:26;;;;;;;;;;;12.80;99.90;;;;;;2615923;54;19950;-72
2023/10/19 03:44:57;;;;;;;;;;;12.80;99.90;;;;;;2615946;54;19953;-72
2023/10/19 03:47:31;;;;;;;;;;;12.90;99.90;;;;;;2617022;31;20423;-72
2023/10/19 03:50:06;;;;;;;;;;;12.90;99.90;;;;;;2615426;54;20112;-72
2023/10/19 03:52:37;;;;;;;;;;;12.80;99.90;;;;;;2616389;54;20450;-73
2023/10/19 03:55:11;;;;;;;;;;;12.80;99.90;;;;;;2615952;54;20051;-72
2023/10/19 03:57:46;;;;;;;;;;;12.80;99.90;;;;;;2615767;54;20453;-72
2023/10/19 04:00:18;;;;;;;;;;;12.80;99.90;;;;;;2615904;54;19953;-72
2023/10/19 04:02:50;;;;;;;;;;;12.80;99.90;;;;;;2616527;39;20045;-72
2023/10/19 04:05:22;;;;;;;;;;;12.80;99.90;;;;;;2615091;47;19939;-72
2023/10/19 04:07:55;;;;;;;;;;;12.80;99.90;;;;;;2617087;47;20022;-73
2023/10/19 04:10:44;;;;;;;;;;;12.80;99.90;;;;;;2616174;54;19947;-73
2023/10/19 04:13:17;;;;;;;;;;;12.80;99.90;;;;;;2614932;54;19947;-74
2023/10/19 08:24:54;;;;;;;;;;;12.90;99.90;;;;;;2620613;46;20276;-80
2023/10/19 08:27:24;;;;;;;;;;;13.40;99.90;;;;;;2623672;54;19951;-78
2023/10/19 08:29:55;;;;;;;;;;;13.50;99.90;;;;;;2619520;47;20017;-78
2023/10/19 08:32:26;;;;;;;;;;;13.60;99.90;;;;;;2618458;47;19938;-76
2023/10/19 08:34:56;;;;;;;;;;;13.70;99.90;;;;;;2618364;54;19946;-78
2023/10/19 08:37:26;;;;;;;;;;;13.70;99.90;;;;;;2620604;47;19946;-80
2023/10/19 08:39:58;;;;;;;;;;;13.80;99.90;;;;;;2619299;47;19953;-77
2023/10/19 08:42:30;;;;;;;;;;;13.80;99.90;;;;;;2620943;54;19950;-79
2023/10/19 08:45:01;;;;;;;;;;;13.90;99.90;;;;;;2620589;47;20037;-80
2023/10/19 08:47:31;;;;;;;;;;;14.00;99.90;;;;;;2623814;47;19947;-79
2023/10/19 08:50:02;;;;;;;;;;;14.00;99.90;;;;;;2617092;54;19946;-78
2023/10/19 08:52:32;;;;;;;;;;;14.10;99.90;;;;;;2617327;54;19939;-78
2023/10/19 08:55:09;;;;;;;;;;;14.10;99.90;;;;;;2618137;47;20034;-77
2023/10/19 08:57:39;;;;;;;;;;;14.10;99.90;;;;;;2617963;47;19946;-77
2023/10/19 09:00:09;;;;;;;;;;;14.20;99.90;;;;;;2619550;47;19974;-78
2023/10/19 09:02:39;;;;;;;;;;;14.20;99.90;;;;;;2619578;39;20378;-75
2023/10/19 09:05:19;;;;;;;;;;;14.20;99.90;;;;;;2616740;48;19943;-77
2023/10/19 09:07:54;;;;;;;;;;;14.20;99.90;;;;;;2617883;47;19979;-76
2023/10/19 09:10:27;;;;;;;;;;;14.10;99.90;;;;;;2616956;46;19970;-76
2023/10/19 09:13:01;;;;;;;;;;;14.10;99.90;;;;;;2617844;51;19998;-77
2023/10/19 09:15:32;;;;;;;;;;;14.10;99.90;;;;;;2618022;39;20076;-77
2023/10/19 09:18:14;;;;;;;;;;;14.20;99.90;;;;;;2617857;47;19947;-79
2023/10/19 09:20:52;;;;;;;;;;;14.20;99.90;;;;;;2616986;47;20434;-77
2023/10/19 09:23:23;;;;;;;;;;;14.20;99.90;;;;;;2616078;54;19957;-78
2023/10/19 09:25:55;;;;;;;;;;;14.20;99.90;;;;;;2616555;54;20430;-78
2023/10/19 09:28:25;;;;;;;;;;;14.20;99.90;;;;;;2616635;54;19954;-76
2023/10/19 09:30:55;;;;;;;;;;;14.30;99.90;;;;;;2615910;54;19977;-76
2023/10/19 09:33:25;;;;;;;;;;;14.30;99.90;;;;;;2616435;47;20095;-75
2023/10/19 09:35:56;;;;;;;;;;;14.30;99.90;;;;;;2616927;47;19938;-76
2023/10/19 09:38:26;;;;;;;;;;;14.30;99.90;;;;;;2617245;47;19947;-76
2023/10/19 09:41:00;;;;;;;;;;;14.40;99.90;;;;;;2613413;47;19983;-77
2023/10/19 09:43:35;;;;;;;;;;;14.40;99.90;;;;;;2604642;50;19954;-79
2023/10/19 09:46:08;;;;;;;;;;;14.50;99.90;;;;;;2605991;47;19946;-78
2023/10/19 09:48:41;;;;;;;;;;;14.50;99.90;;;;;;2605246;54;19950;-76
2023/10/19 09:51:12;;;;;;;;;;;14.50;99.90;;;;;;2606574;54;19955;-76
2023/10/19 09:53:48;;;;;;;;;;;14.60;99.90;;;;;;2608569;47;19958;-78
2023/10/19 09:56:23;;;;;;;;;;;14.50;99.90;;;;;;2607425;54;20561;-76
2023/10/19 09:58:55;;;;;;;;;;;14.50;99.90;;;;;;2607304;54;20072;-75
2023/10/19 10:01:26;;;;;;;;;;;14.50;99.90;;;;;;2608192;46;19973;-77
2023/10/19 10:03:57;;;;;;;;;;;14.50;99.90;;;;;;2606135;54;19950;-74
2023/10/19 10:06:30;;;;;;;;;;;14.50;99.90;;;;;;2607283;54;19950;-75
2023/10/19 10:09:03;;;;;;;;;;;14.50;99.90;;;;;;2607040;54;19946;-74
2023/10/19 10:11:35;;;;;;;;;;;14.50;99.90;;;;;;2606368;47;19950;-74
2023/10/19 10:14:24;;;;;;;;;;;14.50;99.90;;;;;;2605196;54;19947;-74
2023/10/19 10:17:01;;;;;;;;;;;14.60;99.90;;;;;;2606256;47;19950;-74
2023/10/19 10:19:31;;;;;;;;;;;14.50;99.90;;;;;;2605670;47;19950;-76
2023/10/19 10:22:06;;;;;;;;;;;14.60;99.90;;;;;;2606862;39;20480;-77
2023/10/19 10:24:41;;;;;;;;;;;14.60;99.90;;;;;;2605991;54;19947;-74
2023/10/19 10:27:15;;;;;;;;;;;14.60;99.90;;;;;;2606311;47;19950;-75
2023/10/19 10:29:56;;;;;;;;;;;14.60;99.90;;;;;;2606170;47;19950;-78
2023/10/19 10:32:41;;;;;;;;;;;14.60;99.90;;;;;;2607105;54;20455;-75
2023/10/19 10:35:11;;;;;;;;;;;14.60;99.90;;;;;;2605467;54;19946;-72
2023/10/19 10:37:41;;;;;;;;;;;14.60;99.90;;;;;;2606550;54;20493;-75
2023/10/19 10:40:11;;;;;;;;;;;14.60;99.90;;;;;;2605768;54;20499;-75
2023/10/19 10:42:44;;;;;;;;;;;14.60;99.90;;;;;;2606232;54;19946;-73
2023/10/19 10:45:21;;;;;;;;;;;14.60;99.90;;;;;;2605983;54;19987;-73
2023/10/19 10:47:51;;;;;;;;;;;14.70;99.90;;;;;;2605650;54;19946;-75
2023/10/19 10:50:23;;;;;;;;;;;14.80;99.90;;;;;;2606008;54;19953;-74
2023/10/19 10:52:57;;;;;;;;;;;14.70;99.90;;;;;;2606176;54;19946;-71
2023/10/19 10:55:27;;;;;;;;;;;14.70;99.90;;;;;;2605909;47;19950;-70
2023/10/19 10:57:59;;;;;;;;;;;14.60;99.90;;;;;;2604800;47;19954;-70
2023/10/19 11:00:32;;;;;;;;;;;14.60;99.90;;;;;;2608961;54;19956;-75
2023/10/19 11:03:03;;;;;;;;;;;14.60;99.90;;;;;;2610800;54;19946;-75
2023/10/19 11:05:35;;;;;;;;;;;15.10;99.90;;;;;;2609091;47;19946;-73
2023/10/19 11:08:06;;;;;;;;;;;14.70;99.90;;;;;;2608251;54;19953;-76
2023/10/19 11:10:36;;;;;;;;;;;14.70;99.90;;;;;;2606509;47;19965;-67
2023/10/19 11:13:09;;;;;;;;;;;14.80;99.90;;;;;;2606183;54;19953;-74
2023/10/19 11:15:40;;;;;;;;;;;14.80;99.90;;;;;;2606174;54;19947;-71
2023/10/19 11:18:11;;;;;;;;;;;14.80;99.90;;;;;;2607715;39;20114;-71
2023/10/19 11:20:40;;;;;;;;;;;14.90;99.90;;;;;;2606082;54;19978;-71
2023/10/19 11:23:10;;;;;;;;;;;14.90;99.90;;;;;;2605754;47;19946;-73
2023/10/19 11:25:40;;;;;;;;;;;14.90;99.90;;;;;;2605925;54;20021;-71
2023/10/19 11:28:19;;;;;;;;;;;14.90;99.90;;;;;;2605810;54;19954;-70
2023/10/19 11:30:49;;;;;;;;;;;14.90;99.90;;;;;;2605674;54;19946;-71
2023/10/19 11:33:24;;;;;;;;;;;14.90;99.90;;;;;;2604166;54;20088;-71
2023/10/19 11:35:54;;;;;;;;;;;14.90;99.90;;;;;;2605263;47;19947;-70
2023/10/19 11:38:24;;;;;;;;;;;15.00;99.90;;;;;;2611782;54;19974;-71
2023/10/19 11:40:53;;;;;;;;;;;15.00;99.90;;;;;;2615669;54;19945;-70
2023/10/19 11:43:26;;;;;;;;;;;15.10;99.90;;;;;;2614381;54;19946;-70
2023/10/19 11:45:56;;;;;;;;;;;15.10;99.90;;;;;;2615648;54;19953;-70
2023/10/19 11:48:26;;;;;;;;;;;15.20;99.90;;;;;;2615304;54;19973;-70
2023/10/19 11:50:56;;;;;;;;;;;15.20;99.90;;;;;;2615822;54;19939;-73
2023/10/19 11:53:25;;;;;;;;;;;15.30;99.90;;;;;;2616104;47;20018;-71
2023/10/19 11:55:55;;;;;;;;;;;15.30;99.90;;;;;;2616160;39;20670;-71
2023/10/19 11:58:27;;;;;;;;;;;15.30;99.90;;;;;;2615518;31;20378;-70
2023/10/19 12:00:58;;;;;;;;;;;15.40;99.90;;;;;;2615138;47;19947;-71
2023/10/19 12:03:28;;;;;;;;;;;15.40;99.90;;;;;;2614672;54;19946;-71
2023/10/19 12:05:58;;;;;;;;;;;15.40;99.90;;;;;;2616120;54;19939;-76
2023/10/19 12:08:28;;;;;;;;;;;15.50;99.90;;;;;;2616378;47;19951;-78
2023/10/19 12:10:57;;;;;;;;;;;15.50;99.90;;;;;;2616795;47;19966;-78
2023/10/19 12:13:30;;;;;;;;;;;15.50;99.90;;;;;;2617098;47;19950;-80
2023/10/19 12:16:04;;;;;;;;;;;15.50;99.90;;;;;;2617681;47;19991;-80
2023/10/19 12:18:54;;;;;;;;;;;15.50;99.90;;;;;;2614963;47;20430;-78
2023/10/19 12:21:27;;;;;;;;;;;15.50;99.90;;;;;;2616420;47;19958;-78
2023/10/19 12:23:59;;;;;;;;;;;15.50;99.90;;;;;;2614949;54;19946;-77
2023/10/19 12:26:29;;;;;;;;;;;15.50;99.90;;;;;;2616741;47;20022;-79
2023/10/19 12:29:04;;;;;;;;;;;15.50;99.90;;;;;;2620829;47;19950;-76
2023/10/19 12:31:33;;;;;;;;;;;15.50;99.90;;;;;;2616267;47;19947;-78
2023/10/19 12:34:04;;;;;;;;;;;15.50;99.90;;;;;;2615526;47;19947;-75
2023/10/19 12:36:34;;;;;;;;;;;15.50;99.90;;;;;;2617044;47;19947;-75
2023/10/19 12:39:06;;;;;;;;;;;15.50;99.90;;;;;;2616821;54;19946;-77
2023/10/19 12:41:39;;;;;;;;;;;15.50;99.90;;;;;;2616446;54;20061;-74
2023/10/19 12:44:12;;;;;;;;;;;15.50;99.90;;;;;;2615730;47;19972;-77
2023/10/19 12:46:42;;;;;;;;;;;15.50;99.90;;;;;;2613700;47;20543;-75
2023/10/19 12:49:14;;;;;;;;;;;15.50;99.90;;;;;;2615614;47;19947;-78
2023/10/19 12:51:45;;;;;;;;;;;15.50;99.90;;;;;;2615834;54;19958;-76
2023/10/19 12:54:16;;;;;;;;;;;15.50;99.90;;;;;;2615987;54;19999;-79
2023/10/19 12:56:49;;;;;;;;;;;15.60;99.90;;;;;;2619039;54;19953;-77
2023/10/19 12:59:21;;;;;;;;;;;15.60;99.90;;;;;;2617293;47;20001;-76
2023/10/19 13:01:54;;;;;;;;;;;15.60;99.90;;;;;;2617270;54;19946;-77
2023/10/19 13:04:24;;;;;;;;;;;15.60;99.90;;;;;;2617218;54;20046;-78
2023/10/19 13:06:57;;;;;;;;;;;15.60;99.90;;;;;;2618396;47;19946;-78
2023/10/19 13:09:30;;;;;;;;;;;15.70;99.90;;;;;;2617782;39;20674;-78
2023/10/19 13:12:00;;;;;;;;;;;15.80;99.90;;;;;;2618986;54;19954;-78
2023/10/19 13:14:34;;;;;;;;;;;15.80;99.90;;;;;;2616914;54;19946;-77
2023/10/19 13:17:03;;;;;;;;;;;15.80;99.90;;;;;;2621692;47;19942;-78
2023/10/19 13:19:36;;;;;;;;;;;15.80;99.90;;;;;;2620295;47;19954;-76
2023/10/19 13:22:07;;;;;;;;;;;15.80;99.90;;;;;;2617712;54;19965;-77
2023/10/19 13:24:40;;;;;;;;;;;15.90;99.90;;;;;;2617625;47;19958;-75
2023/10/19 13:27:10;;;;;;;;;;;15.90;99.90;;;;;;2619619;54;19954;-75
2023/10/19 13:29:43;;;;;;;;;;;15.90;99.90;;;;;;2618156;54;20034;-76
2023/10/19 13:32:12;;;;;;;;;;;15.90;99.90;;;;;;2618575;54;19945;-75
2023/10/19 13:34:42;;;;;;;;;;;15.90;99.90;;;;;;2617373;47;20458;-74
2023/10/19 13:37:12;;;;;;;;;;;15.90;99.90;;;;;;2617872;54;19994;-76
2023/10/19 13:39:41;;;;;;;;;;;15.90;99.90;;;;;;2617844;54;20191;-74
2023/10/19 13:42:11;;;;;;;;;;;15.80;99.90;;;;;;2617598;46;19954;-74
2023/10/19 13:44:43;;;;;;;;;;;16.00;99.90;;;;;;2619489;54;19947;-80
2023/10/19 13:47:14;;;;;;;;;;;16.10;99.90;;;;;;2620293;47;19946;-77
2023/10/19 13:49:46;;;;;;;;;;;16.00;99.90;;;;;;2618713;47;19988;-79
2023/10/19 13:52:17;;;;;;;;;;;16.10;99.90;;;;;;2619669;47;19953;-79
2023/10/19 13:54:47;;;;;;;;;;;16.10;99.90;;;;;;2616841;47;20436;-80
2023/10/19 13:57:23;;;;;;;;;;;16.10;99.90;;;;;;2617922;46;19969;-78
2023/10/19 13:59:56;;;;;;;;;;;16.10;99.90;;;;;;2618872;39;20344;-78
2023/10/19 14:02:26;;;;;;;;;;;16.10;99.90;;;;;;2618993;47;20490;-78
2023/10/19 14:05:00;;;;;;;;;;;16.10;99.90;;;;;;2618125;47;20446;-78
2023/10/19 14:07:31;;;;;;;;;;;16.10;99.90;;;;;;2620074;47;19939;-77
2023/10/19 14:10:03;;;;;;;;;;;16.10;99.90;;;;;;2620044;47;19991;-78
2023/10/19 14:12:33;;;;;;;;;;;16.10;99.90;;;;;;2619058;46;19953;-82
2023/10/19 14:15:05;;;;;;;;;;;16.10;99.90;;;;;;2618776;47;20412;-78
2023/10/19 14:17:35;;;;;;;;;;;16.10;99.90;;;;;;2619617;47;19952;-80
2023/10/19 14:20:06;;;;;;;;;;;16.10;99.90;;;;;;2619749;47;19946;-79
2023/10/19 14:25:23;;;;;;;;;;;16.10;99.90;;;;;;2614343;54;19947;-75
2023/10/19 14:27:55;;;;;;;;;;;16.10;99.90;;;;;;2617461;54;19938;-76
2023/10/19 14:30:29;;;;;;;;;;;16.10;99.90;;;;;;2617680;47;19938;-76
2023/10/19 14:32:58;;;;;;;;;;;16.10;99.90;;;;;;2617958;47;19946;-77
2023/10/19 14:35:28;;;;;;;;;;;16.10;99.90;;;;;;2616778;46;19950;-75
2023/10/19 14:38:00;;;;;;;;;;;16.10;99.90;;;;;;2615350;47;19957;-74
2023/10/19 14:40:30;;;;;;;;;;;16.10;99.90;;;;;;2616316;54;19939;-74
2023/10/19 14:43:01;;;;;;;;;;;16.10;99.90;;;;;;2616757;47;19939;-74
2023/10/19 14:45:33;;;;;;;;;;;16.20;99.90;;;;;;2616442;54;19939;-75
2023/10/19 14:48:04;;;;;;;;;;;16.20;99.90;;;;;;2616231;54;19946;-76
2023/10/19 14:50:33;;;;;;;;;;;16.10;99.90;;;;;;2617773;39;20353;-74
2023/10/19 14:53:03;;;;;;;;;;;16.10;99.90;;;;;;2616505;46;20458;-74
2023/10/19 14:55:33;;;;;;;;;;;16.10;99.90;;;;;;2616442;54;20003;-76
2023/10/19 14:58:02;;;;;;;;;;;16.00;99.90;;;;;;2616647;51;20072;-73
2023/10/19 15:00:37;;;;;;;;;;;16.10;99.90;;;;;;2616685;47;19946;-74
2023/10/19 15:03:08;;;;;;;;;;;16.10;99.90;;;;;;2615130;46;20068;-74
2023/10/19 15:05:40;;;;;;;;;;;16.10;99.90;;;;;;2615874;46;19950;-73
2023/10/19 15:08:10;;;;;;;;;;;16.10;99.90;;;;;;2616213;47;19951;-73
2023/10/19 15:10:43;;;;;;;;;;;16.10;99.90;;;;;;2616913;54;19995;-73
2023/10/19 15:13:13;;;;;;;;;;;16.20;99.90;;;;;;2616612;47;19947;-73
2023/10/19 15:15:45;;;;;;;;;;;16.20;99.90;;;;;;2615383;47;19947;-74
2023/10/19 15:18:15;;;;;;;;;;;16.30;99.90;;;;;;2610672;39;20345;-74
2023/10/19 15:20:46;;;;;;;;;;;16.30;99.90;;;;;;2603182;47;19971;-73
2023/10/19 15:23:16;;;;;;;;;;;16.30;99.90;;;;;;2605539;47;19946;-73
2023/10/19 15:25:45;;;;;;;;;;;16.30;99.90;;;;;;2605443;31;20527;-72
2023/10/19 15:28:15;;;;;;;;;;;16.30;99.90;;;;;;2605695;47;19974;-74
2023/10/19 15:30:47;;;;;;;;;;;16.30;99.90;;;;;;2605637;47;19950;-71
2023/10/19 15:33:19;;;;;;;;;;;16.30;99.90;;;;;;2606218;47;19982;-76
2023/10/19 15:35:51;;;;;;;;;;;16.50;99.90;;;;;;2605447;47;19946;-73
2023/10/19 15:38:22;;;;;;;;;;;16.30;99.90;;;;;;2605691;47;19982;-72
2023/10/19 15:40:52;;;;;;;;;;;16.30;99.90;;;;;;2606374;47;19946;-75
2023/10/19 15:43:22;;;;;;;;;;;16.40;99.90;;;;;;2605472;54;19975;-74
2023/10/19 15:45:55;;;;;;;;;;;16.40;99.90;;;;;;2606686;39;20342;-73
2023/10/19 15:48:24;;;;;;;;;;;16.40;99.90;;;;;;2605725;47;19986;-74
2023/10/19 15:50:54;;;;;;;;;;;16.40;99.90;;;;;;2606352;39;20394;-73
2023/10/19 15:53:24;;;;;;;;;;;16.40;99.90;;;;;;2605713;39;20338;-74
2023/10/19 15:55:56;;;;;;;;;;;16.40;99.90;;;;;;2605062;47;20426;-72
2023/10/19 15:58:26;;;;;;;;;;;16.40;99.90;;;;;;2605796;47;19965;-74
2023/10/19 16:00:58;;;;;;;;;;;16.40;99.90;;;;;;2605550;47;19950;-75
2023/10/19 16:03:28;;;;;;;;;;;16.30;99.90;;;;;;2604884;47;20084;-73
2023/10/19 16:05:57;;;;;;;;;;;16.30;99.90;;;;;;2605216;54;19953;-74
2023/10/19 16:08:27;;;;;;;;;;;16.30;99.90;;;;;;2604997;54;19946;-71
2023/10/19 16:10:57;;;;;;;;;;;16.30;99.90;;;;;;2605585;54;19946;-72
2023/10/19 16:13:26;;;;;;;;;;;16.30;99.90;;;;;;2604613;39;20460;-72
2023/10/19 16:15:59;;;;;;;;;;;16.20;99.90;;;;;;2609357;47;19951;-74
2023/10/19 16:18:28;;;;;;;;;;;16.20;99.90;;;;;;2605676;54;20674;-74
2023/10/19 16:20:58;;;;;;;;;;;16.20;99.90;;;;;;2606171;47;19954;-74
2023/10/19 16:23:28;;;;;;;;;;;16.20;99.90;;;;;;2604364;54;19946;-74
2023/10/19 16:26:00;;;;;;;;;;;16.20;99.90;;;;;;2605725;47;20454;-73
2023/10/19 16:28:33;;;;;;;;;;;16.20;99.90;;;;;;2605168;47;20038;-74
2023/10/19 16:31:11;;;;;;;;;;;16.20;99.90;;;;;;2606365;47;19951;-73
2023/10/19 16:33:42;;;;;;;;;;;16.10;99.90;;;;;;2606364;31;20445;-73
2023/10/19 16:36:13;;;;;;;;;;;16.20;99.90;;;;;;2604429;47;19951;-74
2023/10/19 16:38:42;;;;;;;;;;;16.10;99.90;;;;;;2605539;54;19958;-73
2023/10/19 16:41:12;;;;;;;;;;;16.10;99.90;;;;;;2605688;47;19950;-73
2023/10/19 16:43:43;;;;;;;;;;;16.10;99.90;;;;;;2605294;54;20048;-72
2023/10/19 16:46:16;;;;;;;;;;;16.10;99.90;;;;;;2605370;54;20465;-72
2023/10/19 16:48:46;;;;;;;;;;;16.10;99.90;;;;;;2605553;48;19954;-73
2023/10/19 16:51:16;;;;;;;;;;;16.10;99.90;;;;;;2606123;54;19962;-73
2023/10/19 16:53:47;;;;;;;;;;;16.10;99.90;;;;;;2605253;39;20280;-72
2023/10/19 16:56:18;;;;;;;;;;;16.10;99.90;;;;;;2604444;54;19973;-72
2023/10/19 16:58:47;;;;;;;;;;;16.10;99.90;;;;;;2604796;54;20056;-72
2023/10/19 17:01:20;;;;;;;;;;;16.10;99.90;;;;;;2605521;39;20263;-73
2023/10/19 17:03:50;;;;;;;;;;;16.10;99.90;;;;;;2603948;54;19946;-73
2023/10/19 17:06:20;;;;;;;;;;;16.10;99.90;;;;;;2605708;54;19947;-72
2023/10/19 17:08:50;;;;;;;;;;;16.10;99.90;;;;;;2604932;54;20033;-73
2023/10/19 17:11:20;;;;;;;;;;;16.10;99.90;;;;;;2604797;54;19950;-72
2023/10/19 17:13:55;;;;;;;;;;;16.10;99.90;;;;;;2603408;54;19946;-72
2023/10/19 17:16:27;;;;;;;;;;;16.10;99.90;;;;;;2605601;47;19953;-71
2023/10/19 17:18:57;;;;;;;;;;;14.50;99.90;;;;;;2606175;39;20076;-72
2023/10/19 17:21:27;;;;;;;;;;;16.10;99.90;;;;;;2606279;47;19946;-72
2023/10/19 17:23:57;;;;;;;;;;;16.10;99.90;;;;;;2606054;54;19974;-71
2023/10/19 17:26:27;;;;;;;;;;;16.10;99.90;;;;;;2605465;47;20493;-72
2023/10/19 17:28:58;;;;;;;;;;;16.10;99.90;;;;;;2605818;54;19947;-71
2023/10/19 17:31:30;;;;;;;;;;;16.10;99.90;;;;;;2605485;54;20774;-71
2023/10/19 17:34:01;;;;;;;;;;;16.10;99.90;;;;;;2604943;50;20491;-72
2023/10/19 17:36:31;;;;;;;;;;;16.10;99.90;;;;;;2605667;50;20568;-71
2023/10/19 17:39:01;;;;;;;;;;;16.10;99.90;;;;;;2605762;54;19946;-72
2023/10/19 17:41:30;;;;;;;;;;;16.10;99.90;;;;;;2604984;47;19957;-71
2023/10/19 17:44:00;;;;;;;;;;;16.10;99.90;;;;;;2607196;54;19971;-74
2023/10/19 17:46:34;;;;;;;;;;;16.10;99.90;;;;;;2607978;54;19946;-73
2023/10/19 17:49:03;;;;;;;;;;;16.10;99.90;;;;;;2607512;47;19950;-74
2023/10/19 17:51:34;;;;;;;;;;;16.10;99.90;;;;;;2604179;47;19946;-72
2023/10/19 17:54:05;;;;;;;;;;;16.00;99.90;;;;;;2607734;47;19939;-75
2023/10/19 17:56:34;;;;;;;;;;;16.10;99.90;;;;;;2613517;47;19956;-77
2023/10/19 17:59:04;;;;;;;;;;;16.10;99.90;;;;;;2615176;47;19977;-76
2023/10/19 18:01:38;;;;;;;;;;;16.10;99.90;;;;;;2607311;54;20061;-73
2023/10/19 18:04:08;;;;;;;;;;;16.10;99.90;;;;;;2607859;47;19946;-74
2023/10/19 18:06:39;;;;;;;;;;;16.10;99.90;;;;;;2606920;47;19953;-73
2023/10/19 18:09:10;;;;;;;;;;;15.90;99.90;;;;;;2605611;47;20461;-73
2023/10/19 18:11:40;;;;;;;;;;;16.10;99.90;;;;;;2619917;54;19947;-78
2023/10/19 18:14:11;;;;;;;;;;;16.10;99.90;;;;;;2621814;54;19991;-77
2023/10/19 18:16:45;;;;;;;;;;;16.10;99.90;;;;;;2618446;50;19926;-80
2023/10/19 18:19:15;;;;;;;;;;;16.10;99.90;;;;;;2623490;54;20067;-76
2023/10/19 18:21:45;;;;;;;;;;;16.10;99.90;;;;;;2617814;47;19946;-75
2023/10/19 18:24:15;;;;;;;;;;;16.10;99.90;;;;;;2618386;47;19953;-78
2023/10/19 18:26:45;;;;;;;;;;;16.10;99.90;;;;;;2620969;47;19946;-77
2023/10/19 18:29:15;;;;;;;;;;;16.10;99.90;;;;;;2620802;47;19946;-77
2023/10/19 18:31:47;;;;;;;;;;;16.10;99.90;;;;;;2622694;54;19951;-76
2023/10/19 18:34:19;;;;;;;;;;;16.00;99.90;;;;;;2622234;47;20451;-77
2023/10/19 18:36:49;;;;;;;;;;;16.10;99.90;;;;;;2624323;47;19974;-77
2023/10/19 18:39:18;;;;;;;;;;;16.10;99.90;;;;;;2625178;47;19950;-78
2023/10/19 18:41:49;;;;;;;;;;;16.10;99.90;;;;;;2621591;46;19950;-77
2023/10/19 18:44:18;;;;;;;;;;;16.10;99.90;;;;;;2622006;47;19998;-78
2023/10/19 18:46:50;;;;;;;;;;;16.10;99.90;;;;;;2618726;54;19951;-76
2023/10/19 18:49:21;;;;;;;;;;;16.10;99.90;;;;;;2621345;47;19946;-77
2023/10/19 18:51:50;;;;;;;;;;;16.10;99.90;;;;;;2621496;47;20036;-76
2023/10/19 18:54:20;;;;;;;;;;;16.10;99.90;;;;;;2617795;47;19953;-76
2023/10/19 18:56:50;;;;;;;;;;;16.10;99.90;;;;;;2618854;47;19945;-77
2023/10/19 18:59:19;;;;;;;;;;;16.10;99.90;;;;;;2618846;47;19953;-77
2023/10/19 19:01:52;;;;;;;;;;;16.10;99.90;;;;;;2620185;47;19953;-77